Millington, Tennessee
Current Conditions -  °F | °C
As of 10:50 AM on Thursday 30 Oct 2014 (Local Time) from KNQA Reporting Station
Few Clouds Few Clouds  
Wind Chill: 61°   Ceiling: Unl
Heat Index: 61°   Visibility: 10mi
Dew Point: 45°   Wind: 6mph
Humidity: 55%   Direction: NA
Pressure: 30.16"   Gusts: NA
Location:  35.34°N, 89.9°W
Report Text: KNQA 301550Z VRB05KT 10SM FEW250 16/07 A3016
Loading
Personal Weather Stations






























Interactive Weather Map
Tropical Storm Tracking
New forecast layout! Learn more

10-Day Weather Forecast

Advertisements
Track Severe Weather on mobile